Time;durP1;ratioP1;P1;durP2;ratioP2;P2;SDS_P1;SDS_P2;PMS_P1;PMS_P2;Temp;Humidity;BMP_temperature;BMP_pressure;BME280_temperature;BME280_humidity;BME280_pressure;Samples;Min_cycle;Max_cycle;Signal;HPM_P1;HPM_P2
2023/10/07 00:01:02;;;;;;;31.73;3.65;;;;;;;;;;5051161;28;20033;-39
2023/10/07 00:03:29;;;;;;;29.13;3.72;;;;;;;;;;5051323;28;20063;-42
2023/10/07 00:06:02;;;;;;;44.42;4.05;;;;;;;;;;5043965;28;20025;-38
2023/10/07 00:08:31;;;;;;;42.28;4.28;;;;;;;;;;5039577;28;20399;-39
2023/10/07 00:10:58;;;;;;;40.13;4.60;;;;;;;;;;5034841;28;20052;-41
2023/10/07 00:13:30;;;;;;;39.67;5.07;;;;;;;;;;5050562;28;20048;-43
2023/10/07 00:15:58;;;;;;;33.28;5.22;;;;;;;;;;5038841;28;20036;-42
2023/10/07 00:18:26;;;;;;;28.60;5.70;;;;;;;;;;5044005;28;20039;-40
2023/10/07 00:20:56;;;;;;;44.40;7.88;;;;;;;;;;5047718;28;20048;-39
2023/10/07 00:23:28;;;;;;;37.22;6.25;;;;;;;;;;5049996;28;20088;-38
2023/10/07 00:25:56;;;;;;;41.97;6.53;;;;;;;;;;5048881;28;20094;-38
2023/10/07 00:28:35;;;;;;;46.67;7.22;;;;;;;;;;5050168;28;20032;-38
2023/10/07 00:31:23;;;;;;;47.53;7.28;;;;;;;;;;5048228;28;20043;-38
2023/10/07 00:33:57;;;;;;;36.85;6.90;;;;;;;;;;5041050;28;20034;-38
2023/10/07 00:36:58;;;;;;;42.58;6.78;;;;;;;;;;5033058;28;20494;-38
2023/10/07 00:39:20;;;;;;;39.50;7.78;;;;;;;;;;5035047;28;20049;-41
2023/10/07 00:41:50;;;;;;;49.13;9.85;;;;;;;;;;5047768;28;20482;-38
2023/10/07 00:44:29;;;;;;;60.08;9.02;;;;;;;;;;5033861;28;20049;-43
2023/10/07 00:52:22;;;;;;;52.47;11.75;;;;;;;;;;5040263;28;20112;-42
2023/10/07 00:57:37;;;;;;;49.50;11.13;;;;;;;;;;5034413;28;20047;-39
2023/10/07 01:03:09;;;;;;;52.33;10.77;;;;;;;;;;5036267;28;20073;-40
2023/10/07 01:05:36;;;;;;;;;;;;;;;;;;5034475;28;20044;-41
2023/10/07 01:08:06;;;;;;;50.42;10.20;;;;;;;;;;5040157;28;19918;-39
2023/10/07 01:10:38;;;;;;;49.42;9.93;;;;;;;;;;5036866;28;20137;-40
2023/10/07 01:13:24;;;;;;;43.58;9.43;;;;;;;;;;5038820;28;20044;-39
2023/10/07 01:15:53;;;;;;;54.05;10.25;;;;;;;;;;5047877;28;20037;-40
2023/10/07 01:18:21;;;;;;;42.83;10.07;;;;;;;;;;5034794;28;20029;-39
2023/10/07 01:23:22;;;;;;;38.72;9.55;;;;;;;;;;5039814;28;20081;-38
2023/10/07 01:25:53;;;;;;;39.95;8.48;;;;;;;;;;5035577;28;20041;-41
2023/10/07 01:28:21;;;;;;;37.20;9.20;;;;;;;;;;5038466;28;20574;-40
2023/10/07 01:31:10;;;;;;;46.33;9.15;;;;;;;;;;5046630;28;20434;-42
2023/10/07 01:33:44;;;;;;;41.67;9.32;;;;;;;;;;5041998;28;20115;-40
2023/10/07 01:36:18;;;;;;;36.72;8.38;;;;;;;;;;5041017;28;20108;-42
2023/10/07 01:38:55;;;;;;;38.28;8.40;;;;;;;;;;5046708;28;20052;-41
2023/10/07 01:41:27;;;;;;;39.05;8.30;;;;;;;;;;5047180;28;20387;-41
2023/10/07 01:44:00;;;;;;;38.75;9.15;;;;;;;;;;5040307;28;20414;-40
2023/10/07 01:46:28;;;;;;;41.35;8.68;;;;;;;;;;5044881;28;20056;-40
2023/10/07 01:48:57;;;;;;;41.42;8.50;;;;;;;;;;5037125;28;20430;-40
2023/10/07 01:51:29;;;;;;;31.83;7.60;;;;;;;;;;5035855;28;20125;-40
2023/10/07 01:53:57;;;;;;;36.45;8.00;;;;;;;;;;5042056;28;20083;-40
2023/10/07 01:56:26;;;;;;;35.78;8.43;;;;;;;;;;5036913;28;20025;-40
2023/10/07 01:58:57;;;;;;;28.55;6.80;;;;;;;;;;5034833;28;20128;-41
2023/10/07 02:01:28;;;;;;;30.63;7.28;;;;;;;;;;5049939;28;20048;-41
2023/10/07 02:03:58;;;;;;;32.28;7.68;;;;;;;;;;5050215;28;20505;-40
2023/10/07 02:06:26;;;;;;;30.45;8.60;;;;;;;;;;5050849;28;20029;-41
2023/10/07 02:08:57;;;;;;;42.42;8.10;;;;;;;;;;5036567;28;20486;-41
2023/10/07 02:11:30;;;;;;;33.55;8.30;;;;;;;;;;5034399;28;20028;-40
2023/10/07 02:13:58;;;;;;;36.88;8.10;;;;;;;;;;5036340;28;20058;-41
2023/10/07 02:16:27;;;;;;;33.03;7.20;;;;;;;;;;5043692;28;20483;-40
2023/10/07 02:18:54;;;;;;;42.15;8.65;;;;;;;;;;5038102;28;20064;-40
2023/10/07 02:21:22;;;;;;;36.50;8.50;;;;;;;;;;5036750;28;20060;-41
2023/10/07 02:23:50;;;;;;;35.28;7.90;;;;;;;;;;5043794;28;20053;-41
2023/10/07 02:26:21;;;;;;;29.92;7.93;;;;;;;;;;5050684;28;20318;-40
2023/10/07 02:28:52;;;;;;;29.70;8.23;;;;;;;;;;5049598;28;20165;-41
2023/10/07 02:31:20;;;;;;;32.92;8.38;;;;;;;;;;5053903;28;20394;-40
2023/10/07 02:33:57;;;;;;;26.38;6.63;;;;;;;;;;5042890;28;20029;-40
2023/10/07 02:39:18;;;;;;;33.70;7.15;;;;;;;;;;5054149;28;20518;-40
2023/10/07 02:41:47;;;;;;;24.67;6.85;;;;;;;;;;5053711;28;20033;-41
2023/10/07 02:44:27;;;;;;;21.85;5.78;;;;;;;;;;5054101;28;20139;-41
2023/10/07 02:46:56;;;;;;;21.02;6.22;;;;;;;;;;5053998;28;20045;-41
2023/10/07 02:49:25;;;;;;;23.83;6.68;;;;;;;;;;5053624;28;20132;-40
2023/10/07 02:51:58;;;;;;;24.80;6.75;;;;;;;;;;5044587;28;20029;-40
2023/10/07 02:54:33;;;;;;;21.67;6.32;;;;;;;;;;5051158;28;20071;-41
2023/10/07 02:59:35;;;;;;;26.45;6.60;;;;;;;;;;5053623;28;20039;-40
2023/10/07 03:05:13;;;;;;;22.00;5.57;;;;;;;;;;5053781;28;20041;-41
2023/10/07 03:07:49;;;;;;;24.58;6.80;;;;;;;;;;5053668;28;20045;-41
2023/10/07 03:10:28;;;;;;;29.48;6.50;;;;;;;;;;5053582;28;20108;-41
2023/10/07 03:12:58;;;;;;;19.25;5.45;;;;;;;;;;5053660;28;20112;-40
2023/10/07 03:18:03;;;;;;;21.63;6.30;;;;;;;;;;5053641;28;20033;-41
2023/10/07 03:23:25;;;;;;;20.83;5.38;;;;;;;;;;5053486;28;20037;-41
2023/10/07 03:28:35;;;;;;;23.52;5.63;;;;;;;;;;5053526;28;20498;-41
2023/10/07 03:31:08;;;;;;;14.85;4.72;;;;;;;;;;5053375;28;20037;-40
2023/10/07 03:41:47;;;;;;;22.65;5.18;;;;;;;;;;5053463;28;20052;-40
2023/10/07 03:44:18;;;;;;;19.13;5.68;;;;;;;;;;5053124;28;20036;-41
2023/10/07 03:46:47;;;;;;;20.73;4.38;;;;;;;;;;5053142;28;20025;-41
2023/10/07 03:49:15;;;;;;;31.48;5.45;;;;;;;;;;5053036;28;20037;-40
2023/10/07 03:54:41;;;;;;;19.10;5.07;;;;;;;;;;5031327;28;20041;-40
2023/10/07 03:57:08;;;;;;;21.58;4.80;;;;;;;;;;5053035;28;20028;-40
2023/10/07 03:59:36;;;;;;;25.95;5.05;;;;;;;;;;5052993;28;20071;-41
2023/10/07 04:04:59;;;;;;;15.73;3.75;;;;;;;;;;5052990;28;20047;-41
2023/10/07 04:07:31;;;;;;;18.13;4.25;;;;;;;;;;5052675;28;20041;-40
2023/10/07 04:12:47;;;;;;;20.65;4.05;;;;;;;;;;5052646;28;20040;-40
2023/10/07 04:15:18;;;;;;;13.45;3.80;;;;;;;;;;5052563;28;20395;-40
2023/10/07 04:17:46;;;;;;;22.52;4.05;;;;;;;;;;5052504;28;20033;-40
2023/10/07 04:20:20;;;;;;;13.40;3.60;;;;;;;;;;5052624;28;20124;-41
2023/10/07 04:23:03;;;;;;;15.38;4.22;;;;;;;;;;5052193;28;20092;-41
2023/10/07 04:25:31;;;;;;;14.30;3.90;;;;;;;;;;5052260;28;20045;-41
2023/10/07 04:27:58;;;;;;;15.85;3.30;;;;;;;;;;5052587;28;20495;-41
2023/10/07 04:30:28;;;;;;;12.20;3.30;;;;;;;;;;5052473;28;20024;-41
2023/10/07 04:33:01;;;;;;;12.13;2.85;;;;;;;;;;5052267;28;20048;-41
2023/10/07 04:35:32;;;;;;;12.80;3.80;;;;;;;;;;5052133;28;20045;-41
2023/10/07 04:46:24;;;;;;;13.88;3.05;;;;;;;;;;5052093;28;20061;-41
2023/10/07 04:48:55;;;;;;;13.48;2.95;;;;;;;;;;5051957;28;20070;-40
2023/10/07 04:54:04;;;;;;;11.95;3.30;;;;;;;;;;5051591;28;20051;-41
2023/10/07 04:56:32;;;;;;;14.73;2.70;;;;;;;;;;5051865;28;20037;-41
2023/10/07 04:59:12;;;;;;;14.85;3.15;;;;;;;;;;5051796;28;20033;-44
2023/10/07 05:01:47;;;;;;;11.00;2.90;;;;;;;;;;5033632;28;20029;-40
2023/10/07 05:04:15;;;;;;;10.77;2.60;;;;;;;;;;5051650;28;20429;-41
2023/10/07 05:06:43;;;;;;;14.10;3.05;;;;;;;;;;5051611;28;20029;-41
2023/10/07 05:09:10;;;;;;;8.30;2.40;;;;;;;;;;5051733;28;20025;-43
2023/10/07 05:11:40;;;;;;;10.43;2.35;;;;;;;;;;5051614;28;20068;-41
2023/10/07 05:14:08;;;;;;;10.30;2.05;;;;;;;;;;5051456;28;20032;-41
2023/10/07 05:16:35;;;;;;;9.50;1.90;;;;;;;;;;5051684;28;20029;-40
2023/10/07 05:19:02;;;;;;;6.65;1.80;;;;;;;;;;5051606;28;20059;-40
2023/10/07 05:21:31;;;;;;;6.35;1.83;;;;;;;;;;5051479;28;20029;-41
2023/10/07 05:24:02;;;;;;;6.28;1.70;;;;;;;;;;5051082;28;20068;-40
2023/10/07 05:26:31;;;;;;;9.73;1.80;;;;;;;;;;5051378;28;20036;-40
2023/10/07 05:29:01;;;;;;;7.63;1.88;;;;;;;;;;5051349;28;20273;-40
2023/10/07 05:31:33;;;;;;;8.65;2.13;;;;;;;;;;5051288;28;20032;-40
2023/10/07 05:34:00;;;;;;;7.28;1.70;;;;;;;;;;5051387;28;20033;-41
2023/10/07 05:36:30;;;;;;;4.13;1.58;;;;;;;;;;5051521;28;20037;-40
2023/10/07 05:39:00;;;;;;;5.32;1.40;;;;;;;;;;5051160;28;20033;-41
2023/10/07 05:41:28;;;;;;;5.60;1.70;;;;;;;;;;5051196;28;20044;-41
2023/10/07 05:43:55;;;;;;;5.90;1.90;;;;;;;;;;5030948;28;20037;-40
2023/10/07 05:46:22;;;;;;;9.93;1.65;;;;;;;;;;5031487;28;20029;-40
2023/10/07 05:48:51;;;;;;;8.45;1.90;;;;;;;;;;5030020;28;20033;-41
2023/10/07 05:51:18;;;;;;;12.90;1.70;;;;;;;;;;5031262;28;20104;-41
2023/10/07 05:53:49;;;;;;;6.05;1.67;;;;;;;;;;5031330;28;20026;-41
2023/10/07 05:56:16;;;;;;;3.63;1.33;;;;;;;;;;5031339;28;20038;-41
2023/10/07 05:58:46;;;;;;;6.45;1.25;;;;;;;;;;5031343;28;20360;-40
2023/10/07 06:01:14;;;;;;;4.28;1.60;;;;;;;;;;5034973;28;20040;-40
2023/10/07 06:03:43;;;;;;;6.20;1.73;;;;;;;;;;5051055;28;20537;-41
2023/10/07 06:06:10;;;;;;;6.47;1.58;;;;;;;;;;5054665;28;20048;-41
2023/10/07 06:08:37;;;;;;;7.00;1.80;;;;;;;;;;5054925;28;20055;-43
2023/10/07 06:11:04;;;;;;;6.03;1.75;;;;;;;;;;5054984;28;20043;-41
2023/10/07 06:13:33;;;;;;;6.57;1.50;;;;;;;;;;5054947;28;20036;-40
2023/10/07 06:16:04;;;;;;;5.90;1.38;;;;;;;;;;5054796;28;20045;-41
2023/10/07 06:18:33;;;;;;;6.17;1.70;;;;;;;;;;5054716;28;20029;-41
2023/10/07 06:23:48;;;;;;;7.97;1.67;;;;;;;;;;5054126;28;20498;-40
2023/10/07 06:26:16;;;;;;;4.72;1.38;;;;;;;;;;5054596;28;20029;-42
2023/10/07 06:28:48;;;;;;;7.03;1.27;;;;;;;;;;5054775;28;20017;-41
2023/10/07 06:31:22;;;;;;;;;;;;;;;;;;5054830;28;20187;-41
2023/10/07 06:36:52;;;;;;;;;;;;;;;;;;5013011;28;20030;-41
2023/10/07 06:39:27;;;;;;;3.13;1.02;;;;;;;;;;5045992;28;20377;-41
2023/10/07 06:41:57;;;;;;;5.13;1.23;;;;;;;;;;5054093;28;20382;-41
2023/10/07 06:44:30;;;;;;;4.80;1.00;;;;;;;;;;5054366;28;20028;-41
2023/10/07 06:46:57;;;;;;;7.18;1.20;;;;;;;;;;5054231;28;20045;-41
2023/10/07 06:49:24;;;;;;;7.10;0.90;;;;;;;;;;5054206;28;20044;-40
2023/10/07 06:51:56;;;;;;;2.92;0.57;;;;;;;;;;5054144;28;20508;-41
2023/10/07 06:54:23;;;;;;;;;;;;;;;;;;5054503;28;20112;-40
2023/10/07 06:56:51;;;;;;;6.40;1.00;;;;;;;;;;5054230;28;19911;-41
2023/10/07 06:59:18;;;;;;;3.17;1.05;;;;;;;;;;5054158;28;20029;-41
2023/10/07 07:04:15;;;;;;;3.85;1.10;;;;;;;;;;5054305;28;20037;-40
2023/10/07 07:06:46;;;;;;;1.65;0.80;;;;;;;;;;5053925;28;20036;-41
2023/10/07 07:12:03;;;;;;;2.90;0.77;;;;;;;;;;5053997;28;20044;-40
2023/10/07 07:14:30;;;;;;;2.38;0.90;;;;;;;;;;5053741;28;20040;-41
2023/10/07 07:17:28;;;;;;;3.67;0.80;;;;;;;;;;5053477;28;20091;-41
2023/10/07 07:19:45;;;;;;;2.67;1.00;;;;;;;;;;5053613;28;20051;-41
2023/10/07 07:22:12;;;;;;;4.38;1.05;;;;;;;;;;5053416;28;20045;-41
2023/10/07 07:24:41;;;;;;;2.83;1.00;;;;;;;;;;5053446;28;20053;-41
2023/10/07 07:27:08;;;;;;;3.00;0.95;;;;;;;;;;5053512;28;20087;-41
2023/10/07 07:29:35;;;;;;;4.75;0.93;;;;;;;;;;5053527;28;20029;-41
2023/10/07 07:32:17;;;;;;;4.07;1.00;;;;;;;;;;5053403;28;20505;-40
2023/10/07 07:34:44;;;;;;;3.92;0.95;;;;;;;;;;5053405;28;20029;-41
2023/10/07 07:37:14;;;;;;;1.95;0.90;;;;;;;;;;5053423;28;20108;-41
2023/10/07 07:39:41;;;;;;;3.42;0.93;;;;;;;;;;5053262;28;20497;-40
2023/10/07 07:42:22;;;;;;;2.72;0.95;;;;;;;;;;5053173;28;20106;-42
2023/10/07 07:44:58;;;;;;;2.63;0.80;;;;;;;;;;5053355;28;20029;-41
2023/10/07 07:47:34;;;;;;;4.43;0.90;;;;;;;;;;5053249;28;20025;-41
2023/10/07 07:50:01;;;;;;;2.97;1.00;;;;;;;;;;5053096;28;20116;-41
2023/10/07 07:52:28;;;;;;;4.32;1.00;;;;;;;;;;5053065;28;20041;-41
2023/10/07 07:54:55;;;;;;;2.95;0.85;;;;;;;;;;5053061;28;20033;-40
2023/10/07 07:57:24;;;;;;;3.00;0.80;;;;;;;;;;5053057;28;20021;-41
2023/10/07 07:59:51;;;;;;;2.33;0.90;;;;;;;;;;5052830;28;20037;-40
2023/10/07 08:02:24;;;;;;;3.10;0.80;;;;;;;;;;5052657;28;20437;-41
2023/10/07 08:04:51;;;;;;;4.05;0.98;;;;;;;;;;5052821;28;20037;-40
2023/10/07 08:09:51;;;;;;;2.22;0.65;;;;;;;;;;5052718;28;20390;-41
2023/10/07 08:12:19;;;;;;;1.60;1.00;;;;;;;;;;5052694;28;20039;-40
2023/10/07 08:14:49;;;;;;;1.75;0.68;;;;;;;;;;5052662;28;20167;-41
2023/10/07 08:17:19;;;;;;;4.72;0.85;;;;;;;;;;5052512;28;20440;-41
2023/10/07 08:19:52;;;;;;;4.40;1.02;;;;;;;;;;5052481;28;20427;-40
2023/10/07 08:22:20;;;;;;;2.25;0.60;;;;;;;;;;5052376;28;20036;-41
2023/10/07 08:24:52;;;;;;;3.47;0.73;;;;;;;;;;5052314;28;20049;-41
2023/10/07 08:30:06;;;;;;;2.13;0.70;;;;;;;;;;5052318;28;20441;-41
2023/10/07 08:32:43;;;;;;;4.88;0.77;;;;;;;;;;5052509;28;20037;-41
2023/10/07 08:35:16;;;;;;;3.00;0.80;;;;;;;;;;5052289;28;20029;-41
2023/10/07 08:37:47;;;;;;;4.97;0.75;;;;;;;;;;5052179;28;20075;-41
2023/10/07 08:40:49;;;;;;;3.08;0.90;;;;;;;;;;5051987;28;20054;-41
2023/10/07 08:43:04;;;;;;;3.50;0.80;;;;;;;;;;5051681;28;20037;-41
2023/10/07 08:45:31;;;;;;;1.17;0.60;;;;;;;;;;5052019;28;20032;-41
2023/10/07 08:48:17;;;;;;;1.20;0.70;;;;;;;;;;5052068;28;20033;-40
2023/10/07 08:50:58;;;;;;;1.83;0.82;;;;;;;;;;5051966;28;20033;-41
2023/10/07 08:53:28;;;;;;;2.75;0.88;;;;;;;;;;5051955;28;20087;-41
2023/10/07 08:55:57;;;;;;;3.67;0.80;;;;;;;;;;5051882;28;20463;-41
2023/10/07 08:58:28;;;;;;;1.70;0.70;;;;;;;;;;5051804;28;20378;-40
2023/10/07 09:00:58;;;;;;;1.85;0.65;;;;;;;;;;5051792;28;20087;-40
2023/10/07 09:03:29;;;;;;;2.75;0.80;;;;;;;;;;5051659;28;20029;-41
2023/10/07 09:06:08;;;;;;;1.63;0.70;;;;;;;;;;5051706;28;20066;-40
2023/10/07 09:08:36;;;;;;;2.22;0.77;;;;;;;;;;5051669;28;20024;-40
2023/10/07 09:11:12;;;;;;;3.15;0.90;;;;;;;;;;5051574;28;20024;-41
2023/10/07 09:13:40;;;;;;;1.13;0.70;;;;;;;;;;5051611;28;20138;-41
2023/10/07 09:16:07;;;;;;;2.95;0.80;;;;;;;;;;5051674;28;20021;-41
2023/10/07 09:18:41;;;;;;;3.15;0.70;;;;;;;;;;5051682;28;20025;-40
2023/10/07 09:21:19;;;;;;;1.67;0.60;;;;;;;;;;5051527;28;20545;-41
2023/10/07 09:23:52;;;;;;;1.27;0.73;;;;;;;;;;5051399;28;20075;-40
2023/10/07 09:26:22;;;;;;;1.10;0.65;;;;;;;;;;5051466;28;20497;-41
2023/10/07 09:28:51;;;;;;;6.10;0.80;;;;;;;;;;5051570;28;20048;-40
2023/10/07 09:31:20;;;;;;;2.25;0.70;;;;;;;;;;5051309;28;20064;-41
2023/10/07 09:33:49;;;;;;;1.45;0.57;;;;;;;;;;5051422;28;20056;-40
2023/10/07 09:36:33;;;;;;;2.55;0.70;;;;;;;;;;5051358;28;20025;-40
2023/10/07 09:41:34;;;;;;;3.58;1.20;;;;;;;;;;5055753;28;20079;-41
2023/10/07 09:44:02;;;;;;;3.03;1.35;;;;;;;;;;5055397;28;20048;-40
2023/10/07 09:46:29;;;;;;;4.05;1.00;;;;;;;;;;5055517;28;20082;-40
2023/10/07 09:49:00;;;;;;;1.25;0.85;;;;;;;;;;5055348;28;20033;-41
2023/10/07 09:51:29;;;;;;;1.10;0.77;;;;;;;;;;5054880;28;20045;-40
2023/10/07 09:54:22;;;;;;;3.33;1.00;;;;;;;;;;5055363;28;20028;-40
2023/10/07 09:57:06;;;;;;;2.95;1.13;;;;;;;;;;5011824;28;20433;-40
2023/10/07 09:59:56;;;;;;;1.95;0.90;;;;;;;;;;5054865;28;20040;-41
2023/10/07 10:02:51;;;;;;;2.47;1.10;;;;;;;;;;5055000;28;20029;-40
2023/10/07 10:05:31;;;;;;;1.90;1.00;;;;;;;;;;5053405;28;20405;-40
2023/10/07 10:08:10;;;;;;;1.40;0.80;;;;;;;;;;5055087;28;20052;-41
2023/10/07 10:10:44;;;;;;;1.45;0.70;;;;;;;;;;5054974;28;20025;-41
2023/10/07 10:16:14;;;;;;;4.03;0.98;;;;;;;;;;5008048;28;20039;-40
2023/10/07 10:18:51;;;;;;;2.75;0.70;;;;;;;;;;5054767;28;20470;-40
2023/10/07 10:21:23;;;;;;;1.73;0.80;;;;;;;;;;5054525;28;20394;-41
2023/10/07 10:23:51;;;;;;;3.05;0.80;;;;;;;;;;5054652;28;20060;-40
2023/10/07 10:26:23;;;;;;;3.33;0.95;;;;;;;;;;5045506;28;20052;-40
2023/10/07 10:29:15;;;;;;;1.98;0.85;;;;;;;;;;5054874;28;20488;-42
2023/10/07 10:31:52;;;;;;;3.80;1.00;;;;;;;;;;5054172;28;20581;-41
2023/10/07 10:34:22;;;;;;;6.90;1.20;;;;;;;;;;5054563;28;20027;-41
2023/10/07 10:36:49;;;;;;;4.88;1.13;;;;;;;;;;5035672;28;20026;-41
2023/10/07 10:39:27;;;;;;;15.38;2.00;;;;;;;;;;5034547;28;20028;-41
2023/10/07 10:42:02;;;;;;;22.40;3.28;;;;;;;;;;5049215;28;20057;-41
2023/10/07 10:44:38;;;;;;;23.10;2.90;;;;;;;;;;5051777;28;20422;-41
2023/10/07 10:47:07;;;;;;;19.77;2.80;;;;;;;;;;5054090;28;20063;-42
2023/10/07 10:49:35;;;;;;;17.75;2.70;;;;;;;;;;5054050;28;20096;-40
2023/10/07 10:52:02;;;;;;;32.15;3.10;;;;;;;;;;5035710;28;20025;-41
2023/10/07 10:54:29;;;;;;;22.80;2.50;;;;;;;;;;5054099;28;20036;-41
2023/10/07 10:56:58;;;;;;;19.05;2.50;;;;;;;;;;5054183;28;20103;-41
2023/10/07 10:59:47;;;;;;;20.75;2.35;;;;;;;;;;5053349;28;20048;-41
2023/10/07 11:02:17;;;;;;;17.55;2.45;;;;;;;;;;5053790;28;20037;-41
2023/10/07 11:04:54;;;;;;;15.55;2.10;;;;;;;;;;5053797;28;20106;-40
2023/10/07 11:07:23;;;;;;;11.50;2.40;;;;;;;;;;5053690;28;20544;-40
2023/10/07 11:09:51;;;;;;;12.80;2.22;;;;;;;;;;5053559;28;20497;-41
2023/10/07 11:12:19;;;;;;;19.73;2.55;;;;;;;;;;5053692;28;20389;-43
2023/10/07 11:14:49;;;;;;;13.30;1.75;;;;;;;;;;5053829;28;20028;-40
2023/10/07 11:17:17;;;;;;;11.65;1.92;;;;;;;;;;5051051;28;20107;-40
2023/10/07 11:19:44;;;;;;;15.90;2.25;;;;;;;;;;5026262;28;20023;-40
2023/10/07 11:22:19;;;;;;;23.42;3.08;;;;;;;;;;5042908;28;20068;-40
2023/10/07 11:24:49;;;;;;;18.42;1.95;;;;;;;;;;5041946;28;20057;-40
2023/10/07 11:27:17;;;;;;;13.43;1.98;;;;;;;;;;5042589;28;20426;-40
2023/10/07 11:29:44;;;;;;;14.07;2.35;;;;;;;;;;5043265;28;20503;-40
2023/10/07 11:32:12;;;;;;;14.25;2.10;;;;;;;;;;5038112;28;20096;-40
2023/10/07 11:34:40;;;;;;;33.03;3.10;;;;;;;;;;5033364;28;20029;-40
2023/10/07 11:37:13;;;;;;;21.30;2.75;;;;;;;;;;5033558;28;20017;-43
2023/10/07 11:39:47;;;;;;;27.92;2.97;;;;;;;;;;5039842;28;20029;-41
2023/10/07 11:42:23;;;;;;;17.90;2.55;;;;;;;;;;5053286;28;20163;-40
2023/10/07 11:44:54;;;;;;;18.38;2.25;;;;;;;;;;5052180;28;20021;-41
2023/10/07 11:47:22;;;;;;;37.50;2.95;;;;;;;;;;5033260;28;20040;-41
2023/10/07 11:49:50;;;;;;;13.90;2.15;;;;;;;;;;5041035;28;20040;-41
2023/10/07 11:52:20;;;;;;;20.65;2.10;;;;;;;;;;5034815;28;20040;-41
2023/10/07 11:54:48;;;;;;;15.73;2.35;;;;;;;;;;5033122;28;20096;-41
2023/10/07 11:57:17;;;;;;;11.75;2.00;;;;;;;;;;5033031;28;20026;-41
2023/10/07 11:59:45;;;;;;;17.90;2.13;;;;;;;;;;5032920;28;20032;-41
2023/10/07 12:02:14;;;;;;;19.08;1.90;;;;;;;;;;5031729;28;20045;-41
2023/10/07 12:04:47;;;;;;;13.10;1.90;;;;;;;;;;5032886;28;20487;-41
2023/10/07 12:07:15;;;;;;;17.20;2.03;;;;;;;;;;5032835;28;20030;-40
2023/10/07 12:09:46;;;;;;;12.07;1.65;;;;;;;;;;5032615;28;20395;-43
2023/10/07 12:12:14;;;;;;;17.57;2.43;;;;;;;;;;5032775;28;20474;-43
2023/10/07 12:14:41;;;;;;;18.35;2.50;;;;;;;;;;5032781;28;20742;-41
2023/10/07 12:17:08;;;;;;;16.30;2.03;;;;;;;;;;5032777;28;20048;-40
2023/10/07 12:19:39;;;;;;;10.55;1.65;;;;;;;;;;5032783;28;20033;-41
2023/10/07 12:22:06;;;;;;;13.98;1.90;;;;;;;;;;5032437;28;20060;-41
2023/10/07 12:24:37;;;;;;;10.52;1.67;;;;;;;;;;5032311;28;20131;-41
2023/10/07 12:27:06;;;;;;;8.38;1.60;;;;;;;;;;5032622;28;20026;-41
2023/10/07 12:29:33;;;;;;;19.30;1.85;;;;;;;;;;5032433;28;20060;-40
2023/10/07 12:32:00;;;;;;;10.60;1.50;;;;;;;;;;5032388;28;20018;-41
2023/10/07 12:34:30;;;;;;;8.13;2.13;;;;;;;;;;5032406;28;20026;-41
2023/10/07 12:36:57;;;;;;;9.30;1.55;;;;;;;;;;5032251;28;20029;-41
2023/10/07 12:39:24;;;;;;;11.80;1.85;;;;;;;;;;5032352;28;20029;-40
2023/10/07 12:41:51;;;;;;;14.02;1.50;;;;;;;;;;5032228;28;20064;-41
2023/10/07 12:44:18;;;;;;;12.57;1.92;;;;;;;;;;5032243;28;20399;-42
2023/10/07 12:46:45;;;;;;;10.73;1.50;;;;;;;;;;5032214;28;20478;-41
2023/10/07 12:49:15;;;;;;;11.98;1.30;;;;;;;;;;5032183;28;20044;-41
2023/10/07 12:51:43;;;;;;;10.98;1.33;;;;;;;;;;5032088;28;20075;-41
2023/10/07 12:54:11;;;;;;;8.07;1.48;;;;;;;;;;5032034;28;20415;-41
2023/10/07 12:56:39;;;;;;;9.68;1.42;;;;;;;;;;5032070;28;20065;-41
2023/10/07 12:59:21;;;;;;;7.47;1.00;;;;;;;;;;5031950;28;20025;-41
2023/10/07 13:01:51;;;;;;;6.72;1.17;;;;;;;;;;5031860;28;20105;-41
2023/10/07 13:04:19;;;;;;;7.20;1.13;;;;;;;;;;5031864;28;20060;-41
2023/10/07 13:06:48;;;;;;;6.03;1.30;;;;;;;;;;5032010;28;20025;-40
2023/10/07 13:09:20;;;;;;;8.05;1.50;;;;;;;;;;5031817;28;20411;-40
2023/10/07 13:11:49;;;;;;;10.00;1.30;;;;;;;;;;5031678;28;20060;-41
2023/10/07 13:14:16;;;;;;;8.02;1.20;;;;;;;;;;5031420;28;20112;-41
2023/10/07 13:16:45;;;;;;;6.63;1.15;;;;;;;;;;5031870;28;20071;-40
2023/10/07 13:19:16;;;;;;;5.97;1.30;;;;;;;;;;5031629;28;20033;-41
2023/10/07 13:21:43;;;;;;;7.38;1.30;;;;;;;;;;5031493;28;20022;-41
2023/10/07 13:24:11;;;;;;;6.75;1.10;;;;;;;;;;5031365;28;20103;-41
2023/10/07 13:26:40;;;;;;;3.90;0.90;;;;;;;;;;5031523;28;20053;-41
2023/10/07 13:29:10;;;;;;;15.80;1.85;;;;;;;;;;5031707;28;20044;-41
2023/10/07 13:31:38;;;;;;;7.18;1.30;;;;;;;;;;5031333;28;20033;-41
2023/10/07 13:34:08;;;;;;;11.55;1.40;;;;;;;;;;5031520;28;20091;-40
2023/10/07 13:36:41;;;;;;;6.13;1.52;;;;;;;;;;5014609;28;20036;-41
2023/10/07 13:39:17;;;;;;;6.93;1.27;;;;;;;;;;5031460;28;20060;-40
2023/10/07 13:41:48;;;;;;;8.02;1.15;;;;;;;;;;5031293;28;20028;-40
2023/10/07 13:44:16;;;;;;;7.90;1.13;;;;;;;;;;5031492;28;20045;-41
2023/10/07 13:46:44;;;;;;;4.13;0.90;;;;;;;;;;5031511;28;20029;-40
2023/10/07 13:49:13;;;;;;;6.90;0.98;;;;;;;;;;5031473;28;20030;-41
2023/10/07 13:51:44;;;;;;;6.35;1.10;;;;;;;;;;5031238;28;20084;-40
2023/10/07 13:57:02;;;;;;;9.05;1.10;;;;;;;;;;5031301;28;20116;-40
2023/10/07 13:59:29;;;;;;;5.90;1.20;;;;;;;;;;5031232;28;20116;-41
2023/10/07 14:01:58;;;;;;;16.35;2.20;;;;;;;;;;5031303;28;20021;-41
2023/10/07 14:04:30;;;;;;;11.95;1.42;;;;;;;;;;5031224;28;20048;-41
2023/10/07 14:07:00;;;;;;;;;;;;;;;;;;5031603;28;20033;-41
2023/10/07 14:09:29;;;;;;;9.95;1.35;;;;;;;;;;5013531;28;19916;-40
2023/10/07 14:11:56;;;;;;;5.82;1.30;;;;;;;;;;5031102;28;20559;-41
2023/10/07 14:14:25;;;;;;;12.20;1.50;;;;;;;;;;5031229;28;20029;-41
2023/10/07 14:16:58;;;;;;;16.52;1.35;;;;;;;;;;5031121;28;20116;-41
2023/10/07 14:19:25;;;;;;;11.63;1.35;;;;;;;;;;5031067;28;20030;-41
2023/10/07 14:21:52;;;;;;;6.20;1.10;;;;;;;;;;5031127;28;20128;-41
2023/10/07 14:24:20;;;;;;;5.95;1.00;;;;;;;;;;5030906;28;20056;-41
2023/10/07 14:26:48;;;;;;;4.95;1.15;;;;;;;;;;5034063;28;20029;-42
2023/10/07 14:29:15;;;;;;;10.20;1.65;;;;;;;;;;5034663;28;20056;-40
2023/10/07 14:31:43;;;;;;;8.57;1.42;;;;;;;;;;5034688;28;20037;-41
2023/10/07 14:34:11;;;;;;;10.02;1.27;;;;;;;;;;5034481;28;20037;-41
2023/10/07 14:36:42;;;;;;;10.38;1.40;;;;;;;;;;5034438;28;20034;-41
2023/10/07 14:39:12;;;;;;;21.65;2.33;;;;;;;;;;5034606;28;20037;-41
2023/10/07 14:41:41;;;;;;;13.63;2.10;;;;;;;;;;5034341;28;20037;-40
2023/10/07 14:44:08;;;;;;;6.80;1.00;;;;;;;;;;5034253;28;20160;-41
2023/10/07 14:46:42;;;;;;;8.52;1.35;;;;;;;;;;5034276;28;20037;-41
2023/10/07 14:49:10;;;;;;;21.98;2.55;;;;;;;;;;5034239;28;20061;-40
2023/10/07 14:51:37;;;;;;;6.38;1.02;;;;;;;;;;5034148;28;20092;-40
2023/10/07 14:54:04;;;;;;;7.82;1.23;;;;;;;;;;5034366;28;20025;-41
2023/10/07 14:56:31;;;;;;;18.17;2.08;;;;;;;;;;5034382;28;20033;-41
2023/10/07 14:58:59;;;;;;;14.32;1.30;;;;;;;;;;5034254;28;20037;-41
2023/10/07 15:01:27;;;;;;;21.10;2.60;;;;;;;;;;5033969;28;20033;-41
2023/10/07 15:03:54;;;;;;;9.18;1.42;;;;;;;;;;5033919;28;20087;-41
2023/10/07 15:06:21;;;;;;;9.60;1.08;;;;;;;;;;5034219;28;20036;-40
2023/10/07 15:08:49;;;;;;;7.90;1.17;;;;;;;;;;5034112;28;20029;-41
2023/10/07 15:11:21;;;;;;;7.78;1.30;;;;;;;;;;5033824;28;20422;-41
2023/10/07 15:13:51;;;;;;;8.10;1.33;;;;;;;;;;5034033;28;20029;-41
2023/10/07 15:16:20;;;;;;;7.43;1.08;;;;;;;;;;5034736;28;20037;-43
2023/10/07 15:18:52;;;;;;;7.25;1.30;;;;;;;;;;5042370;28;20493;-41
2023/10/07 15:21:21;;;;;;;4.85;1.05;;;;;;;;;;5033578;28;20073;-41
2023/10/07 15:23:48;;;;;;;7.18;1.10;;;;;;;;;;5033328;28;20053;-41
2023/10/07 15:26:19;;;;;;;5.68;1.05;;;;;;;;;;5033776;28;20558;-43
2023/10/07 15:28:47;;;;;;;23.05;1.90;;;;;;;;;;5033214;28;20060;-41
2023/10/07 15:31:24;;;;;;;18.60;1.77;;;;;;;;;;5033240;28;20037;-42
2023/10/07 15:33:58;;;;;;;11.23;1.65;;;;;;;;;;5033543;28;20049;-41
2023/10/07 15:36:25;;;;;;;11.00;1.30;;;;;;;;;;5040817;28;20037;-41
2023/10/07 15:38:53;;;;;;;7.30;1.08;;;;;;;;;;5033600;28;20025;-40
2023/10/07 15:41:20;;;;;;;8.32;1.65;;;;;;;;;;5034295;28;20419;-41
2023/10/07 15:43:47;;;;;;;8.77;1.58;;;;;;;;;;5039846;28;20073;-48
2023/10/07 15:46:16;;;;;;;10.13;1.33;;;;;;;;;;5047589;28;20431;-41
2023/10/07 15:48:43;;;;;;;8.45;1.10;;;;;;;;;;5053011;28;20102;-40
2023/10/07 15:51:10;;;;;;;10.05;1.50;;;;;;;;;;5038569;28;20044;-41
2023/10/07 15:53:37;;;;;;;6.38;1.23;;;;;;;;;;5033202;28;20049;-41
2023/10/07 15:56:10;;;;;;;7.63;1.20;;;;;;;;;;5032760;28;20100;-41
2023/10/07 15:58:44;;;;;;;11.32;1.65;;;;;;;;;;5043807;28;20033;-41
2023/10/07 16:01:11;;;;;;;7.85;1.45;;;;;;;;;;5035887;28;20033;-41
2023/10/07 16:03:39;;;;;;;7.68;1.30;;;;;;;;;;5041583;28;20038;-41
2023/10/07 16:06:07;;;;;;;13.00;1.88;;;;;;;;;;5032561;28;20030;-39
2023/10/07 16:08:36;;;;;;;13.68;1.67;;;;;;;;;;5032687;28;20092;-41
2023/10/07 16:11:03;;;;;;;9.80;1.60;;;;;;;;;;5049035;28;20087;-41
2023/10/07 16:13:30;;;;;;;9.93;1.63;;;;;;;;;;5052699;28;20103;-41
2023/10/07 16:16:07;;;;;;;4.68;1.65;;;;;;;;;;5052034;28;20039;-41
2023/10/07 16:18:39;;;;;;;10.30;1.75;;;;;;;;;;5052521;28;20456;-41
2023/10/07 16:21:18;;;;;;;9.32;1.63;;;;;;;;;;5052255;28;20433;-41